Time;durP1;ratioP1;P1;durP2;ratioP2;P2;SDS_P1;SDS_P2;PMS_P1;PMS_P2;Temp;Humidity;BMP_temperature;BMP_pressure;BME280_temperature;BME280_humidity;BME280_pressure;Samples;Min_cycle;Max_cycle;Signal;HPM_P1;HPM_P2
2024/03/12 00:00:16;;;;;;;7.07;5.33;;;16.40;48.90;;;;;;5033245;28;20988;-59
2024/03/12 00:02:46;;;;;;;8.43;5.87;;;16.30;49.00;;;;;;5028214;28;20441;-58
2024/03/12 00:05:18;;;;;;;6.13;5.03;;;16.30;49.30;;;;;;5025694;28;20541;-59
2024/03/12 00:07:47;;;;;;;5.20;4.70;;;16.30;49.40;;;;;;5024228;28;20568;-60
2024/03/12 00:10:19;;;;;;;6.63;5.70;;;16.40;49.10;;;;;;5022901;28;20451;-59
2024/03/12 00:12:49;;;;;;;7.10;5.10;;;16.40;49.00;;;;;;5024241;28;20839;-60
2024/03/12 00:15:22;;;;;;;7.73;5.83;;;16.40;48.90;;;;;;5024234;28;20440;-60
2024/03/12 00:17:49;;;;;;;6.50;4.90;;;16.40;48.70;;;;;;5022595;28;20522;-56
2024/03/12 00:20:24;;;;;;;5.80;5.30;;;16.40;48.40;;;;;;5027616;28;20955;-59
2024/03/12 00:22:50;;;;;;;6.57;5.60;;;16.30;48.40;;;;;;5020288;28;20446;-58
2024/03/12 00:25:19;;;;;;;6.87;4.83;;;16.20;48.60;;;;;;5024736;28;20518;-59
2024/03/12 00:27:47;;;;;;;6.33;5.73;;;16.10;48.60;;;;;;5024845;28;20470;-59
2024/03/12 00:30:14;;;;;;;6.97;5.73;;;15.90;48.60;;;;;;5022128;28;20443;-60
2024/03/12 00:32:43;;;;;;;8.00;5.07;;;15.90;49.00;;;;;;5022931;28;20439;-58
2024/03/12 00:35:12;;;;;;;6.67;5.27;;;15.80;48.90;;;;;;5024745;28;20528;-59
2024/03/12 00:37:47;;;;;;;6.40;5.20;;;15.70;49.10;;;;;;5021130;28;20487;-60
2024/03/12 00:40:13;;;;;;;5.63;4.97;;;15.80;49.70;;;;;;5020295;28;20520;-57
2024/03/12 00:42:43;;;;;;;6.57;5.97;;;15.90;50.30;;;;;;5022453;28;20547;-57
2024/03/12 00:45:13;;;;;;;6.27;5.57;;;15.90;49.50;;;;;;5025038;28;20444;-61
2024/03/12 00:47:40;;;;;;;8.43;5.00;;;16.00;49.70;;;;;;5025240;28;20459;-69
2024/03/12 00:50:11;;;;;;;7.80;6.30;;;16.00;49.40;;;;;;5024622;28;20529;-57
2024/03/12 00:52:40;;;;;;;6.13;5.63;;;16.00;50.20;;;;;;5031845;28;20444;-70
2024/03/12 00:55:09;;;;;;;5.87;5.37;;;16.00;49.10;;;;;;5023955;28;20451;-63
2024/03/12 00:57:35;;;;;;;5.50;4.77;;;16.10;48.90;;;;;;5020503;28;20562;-67
2024/03/12 01:00:02;;;;;;;6.80;5.43;;;16.00;48.30;;;;;;5031352;28;20785;-65
2024/03/12 01:02:30;;;;;;;6.93;4.97;;;15.90;48.30;;;;;;5028425;28;20658;-58
2024/03/12 01:04:56;;;;;;;4.27;3.93;;;15.90;48.30;;;;;;5023985;28;20440;-60
2024/03/12 01:07:22;;;;;;;5.53;4.20;;;15.80;48.40;;;;;;5022040;28;20463;-62
2024/03/12 01:09:48;;;;;;;5.30;4.80;;;15.70;49.20;;;;;;5019838;28;20436;-56
2024/03/12 01:12:15;;;;;;;4.53;4.13;;;15.70;49.20;;;;;;5023139;28;20402;-60
2024/03/12 01:14:41;;;;;;;8.47;4.80;;;15.70;49.20;;;;;;5023073;28;20578;-65
2024/03/12 01:17:07;;;;;;;6.40;5.17;;;15.70;48.70;;;;;;5023856;28;21052;-59
2024/03/12 01:19:36;;;;;;;6.53;4.73;;;15.70;48.80;;;;;;5024269;28;20185;-66
2024/03/12 01:22:04;;;;;;;4.80;4.40;;;15.60;48.40;;;;;;5035789;28;20477;-59
2024/03/12 01:24:33;;;;;;;6.80;4.03;;;15.50;48.50;;;;;;5019553;28;20494;-62
2024/03/12 01:27:00;;;;;;;5.90;4.70;;;15.50;48.50;;;;;;5035068;28;20444;-68
2024/03/12 01:29:26;;;;;;;12.53;5.87;;;15.40;48.60;;;;;;5027736;28;20435;-59
2024/03/12 01:31:52;;;;;;;5.30;4.80;;;15.30;49.80;;;;;;5024806;28;20563;-64
2024/03/12 01:34:23;;;;;;;4.33;3.93;;;15.30;49.70;;;;;;5025757;28;20192;-61
2024/03/12 01:36:49;;;;;;;4.63;4.17;;;15.40;50.00;;;;;;5032036;28;20837;-66
2024/03/12 01:39:25;;;;;;;4.97;4.03;;;15.40;50.10;;;;;;5034419;28;20474;-62
2024/03/12 01:41:51;;;;;;;4.77;4.23;;;15.50;49.60;;;;;;5032066;28;20181;-60
2024/03/12 01:44:17;;;;;;;4.20;3.80;;;15.70;49.00;;;;;;5033999;28;20435;-61
2024/03/12 01:46:43;;;;;;;4.40;3.90;;;15.70;48.70;;;;;;5029760;28;20437;-71
2024/03/12 01:49:12;;;;;;;5.50;4.30;;;15.70;49.20;;;;;;5033978;28;20656;-60
2024/03/12 01:51:38;;;;;;;4.83;4.23;;;15.70;48.60;;;;;;5031471;28;20267;-62
2024/03/12 01:54:04;;;;;;;4.77;4.27;;;15.70;48.10;;;;;;5023916;28;20523;-61
2024/03/12 01:56:30;;;;;;;6.53;4.40;;;15.70;48.00;;;;;;5022469;28;20467;-64
2024/03/12 01:58:59;;;;;;;3.80;3.50;;;15.70;48.30;;;;;;5020435;28;20438;-62
2024/03/12 02:01:25;;;;;;;4.23;3.60;;;15.70;48.60;;;;;;5022317;28;21058;-64
2024/03/12 02:03:52;;;;;;;4.33;3.93;;;15.70;49.10;;;;;;5023382;28;20835;-62
2024/03/12 02:06:21;;;;;;;4.83;3.60;;;15.80;48.70;;;;;;5026089;28;20457;-58
2024/03/12 02:08:51;;;;;;;5.97;3.97;;;15.90;48.20;;;;;;5025969;28;20475;-62
2024/03/12 02:11:17;;;;;;;4.27;3.87;;;15.90;48.30;;;;;;5023006;28;20810;-63
2024/03/12 02:13:43;;;;;;;3.77;3.47;;;15.80;48.10;;;;;;5022607;28;20440;-61
2024/03/12 02:16:09;;;;;;;3.87;3.33;;;15.80;48.40;;;;;;5023437;28;21219;-58
2024/03/12 02:18:36;;;;;;;4.10;3.60;;;15.70;48.40;;;;;;5028885;28;20875;-61
2024/03/12 02:21:03;;;;;;;4.07;3.50;;;15.70;48.30;;;;;;5027573;28;20440;-65
2024/03/12 02:23:38;;;;;;;4.20;3.37;;;15.80;48.30;;;;;;5020103;28;20862;-63
2024/03/12 02:26:05;;;;;;;5.87;3.30;;;15.70;47.90;;;;;;5021837;28;20443;-66
2024/03/12 02:28:31;;;;;;;4.80;3.60;;;15.70;48.20;;;;;;5022997;28;20467;-60
2024/03/12 02:30:57;;;;;;;3.83;3.53;;;15.70;48.50;;;;;;5022320;28;20440;-58
2024/03/12 02:33:23;;;;;;;4.10;3.70;;;15.70;48.50;;;;;;5021153;28;20447;-62
2024/03/12 02:35:48;;;;;;;3.20;2.90;;;15.70;48.10;;;;;;5023060;28;20442;-61
2024/03/12 02:38:14;;;;;;;5.10;3.33;;;15.80;48.10;;;;;;5021318;28;20684;-66
2024/03/12 02:40:40;;;;;;;3.43;3.13;;;15.80;48.20;;;;;;5024357;28;20277;-59
2024/03/12 02:43:05;;;;;;;4.00;3.50;;;15.80;48.50;;;;;;5030317;28;20203;-64
2024/03/12 02:45:31;;;;;;;3.20;3.00;;;15.80;49.10;;;;;;5026138;28;20231;-61
2024/03/12 02:47:57;;;;;;;2.80;2.60;;;15.90;48.60;;;;;;5032653;28;20197;-58
2024/03/12 02:50:24;;;;;;;3.30;3.00;;;15.90;47.80;;;;;;5028867;28;20740;-64
2024/03/12 02:52:50;;;;;;;3.33;3.03;;;15.90;47.60;;;;;;5031896;28;20182;-66
2024/03/12 02:55:19;;;;;;;3.33;3.03;;;15.90;47.50;;;;;;5032191;28;20482;-61
2024/03/12 02:57:44;;;;;;;3.37;2.90;;;15.90;47.20;;;;;;5029043;28;20715;-70
2024/03/12 03:00:14;;;;;;;3.10;2.63;;;15.80;47.30;;;;;;5034222;28;20454;-60
2024/03/12 03:02:41;;;;;;;2.53;2.27;;;15.80;48.20;;;;;;5034757;28;20595;-66
2024/03/12 03:05:09;;;;;;;3.03;2.73;;;15.90;48.10;;;;;;5032457;28;20418;-66
2024/03/12 03:07:35;;;;;;;3.00;2.60;;;16.00;47.80;;;;;;5025838;28;20491;-65
2024/03/12 03:10:01;;;;;;;3.57;2.77;;;15.90;48.00;;;;;;5031265;28;20443;-63
2024/03/12 03:12:27;;;;;;;2.80;2.60;;;15.90;48.50;;;;;;5029210;28;20889;-66
2024/03/12 03:14:52;;;;;;;3.50;3.20;;;16.00;48.40;;;;;;5032780;28;20177;-66
2024/03/12 03:17:20;;;;;;;5.07;2.90;;;16.00;48.40;;;;;;5029843;28;20258;-62
2024/03/12 03:19:46;;;;;;;3.47;3.03;;;16.00;47.70;;;;;;5031172;28;20181;-58
2024/03/12 03:22:11;;;;;;;4.43;2.93;;;16.00;47.40;;;;;;5033210;28;20810;-60
2024/03/12 03:24:37;;;;;;;5.10;3.10;;;16.00;47.30;;;;;;5033910;28;20204;-59
2024/03/12 03:27:03;;;;;;;2.63;2.43;;;16.00;47.20;;;;;;5031998;28;20622;-66
2024/03/12 03:29:32;;;;;;;2.63;2.40;;;16.00;47.70;;;;;;5031366;28;20190;-64
2024/03/12 03:32:01;;;;;;;2.83;2.47;;;16.10;47.50;;;;;;5036867;28;20451;-58
2024/03/12 03:34:29;;;;;;;3.27;2.97;;;15.90;47.90;;;;;;5030403;28;20443;-61
2024/03/12 03:37:01;;;;;;;3.10;2.40;;;15.80;47.90;;;;;;5035200;28;20468;-64
2024/03/12 03:39:28;;;;;;;3.17;2.50;;;15.60;48.20;;;;;;5028398;28;20475;-62
2024/03/12 03:41:55;;;;;;;2.53;2.33;;;15.60;48.10;;;;;;5031937;28;20436;-60
2024/03/12 03:44:21;;;;;;;4.23;2.40;;;15.60;48.50;;;;;;5033933;28;20436;-61
2024/03/12 03:46:46;;;;;;;3.33;3.03;;;15.60;48.50;;;;;;5033659;28;20498;-59
2024/03/12 03:49:12;;;;;;;2.43;2.20;;;15.60;49.10;;;;;;5032423;28;20423;-57
2024/03/12 03:51:37;;;;;;;2.33;2.13;;;15.20;49.40;;;;;;5031901;28;20177;-58
2024/03/12 03:54:03;;;;;;;2.17;1.97;;;15.30;49.50;;;;;;5032170;28;20189;-66
2024/03/12 03:56:30;;;;;;;4.30;2.33;;;15.40;49.30;;;;;;5033379;28;20221;-61
2024/03/12 03:59:00;;;;;;;2.67;2.47;;;15.50;49.40;;;;;;5027486;28;20296;-64
2024/03/12 04:01:29;;;;;;;3.03;2.37;;;15.60;49.10;;;;;;5020973;28;20853;-62
2024/03/12 04:04:10;;;;;;;2.30;2.20;;;15.70;48.70;;;;;;5019434;28;20452;-63
2024/03/12 04:06:36;;;;;;;3.00;2.70;;;15.80;48.40;;;;;;5019705;28;20455;-64
2024/03/12 04:09:04;;;;;;;3.00;2.33;;;16.00;48.60;;;;;;5020615;28;20863;-62
2024/03/12 04:11:30;;;;;;;3.07;2.77;;;16.00;47.90;;;;;;5024068;28;20534;-62
2024/03/12 04:13:58;;;;;;;3.13;2.43;;;16.00;48.10;;;;;;5023649;28;20518;-61
2024/03/12 04:16:24;;;;;;;4.03;2.30;;;15.70;47.90;;;;;;5021902;28;20517;-66
2024/03/12 04:18:50;;;;;;;3.47;3.13;;;15.30;48.60;;;;;;5025382;28;20600;-62
2024/03/12 04:21:16;;;;;;;3.57;3.27;;;15.10;49.00;;;;;;5028022;28;20594;-66
2024/03/12 04:23:42;;;;;;;3.00;2.60;;;15.00;49.70;;;;;;5021788;28;20428;-64
2024/03/12 04:26:08;;;;;;;3.30;2.47;;;14.90;49.90;;;;;;5023965;28;21485;-65
2024/03/12 04:28:34;;;;;;;2.57;2.10;;;14.80;50.00;;;;;;5024896;28;20829;-65
2024/03/12 04:31:00;;;;;;;2.87;2.47;;;14.60;50.20;;;;;;5025480;28;20444;-68
2024/03/12 04:33:25;;;;;;;3.80;2.83;;;14.60;50.40;;;;;;5024225;28;20188;-65
2024/03/12 04:35:52;;;;;;;2.30;2.10;;;14.50;50.60;;;;;;5023137;28;20444;-61
2024/03/12 04:38:18;;;;;;;2.50;2.30;;;14.60;50.80;;;;;;5023158;28;20275;-66
2024/03/12 04:40:47;;;;;;;2.77;2.57;;;14.80;50.70;;;;;;5022179;28;20428;-60
2024/03/12 04:43:13;;;;;;;3.07;2.13;;;15.00;50.60;;;;;;5020806;28;20634;-56
2024/03/12 04:45:40;;;;;;;2.60;2.40;;;15.10;50.10;;;;;;5022308;28;20439;-65
2024/03/12 04:48:07;;;;;;;2.50;2.30;;;15.10;49.80;;;;;;5022763;28;20457;-66
2024/03/12 04:50:33;;;;;;;3.43;3.10;;;15.20;49.70;;;;;;5021012;28;20447;-65
2024/03/12 04:52:59;;;;;;;2.97;2.60;;;15.40;50.00;;;;;;5022296;28;20451;-61
2024/03/12 04:55:24;;;;;;;3.10;2.60;;;15.60;49.70;;;;;;5019558;28;20219;-60
2024/03/12 04:57:50;;;;;;;2.60;2.40;;;15.70;49.00;;;;;;5021657;28;20247;-64
2024/03/12 05:00:19;;;;;;;2.90;2.33;;;15.80;48.60;;;;;;5029903;28;20190;-60
2024/03/12 05:02:45;;;;;;;3.37;2.37;;;15.90;48.50;;;;;;5034072;28;20174;-65
2024/03/12 05:05:13;;;;;;;2.40;2.00;;;15.70;48.40;;;;;;5033189;28;20989;-61
2024/03/12 05:07:40;;;;;;;3.33;2.20;;;15.50;49.10;;;;;;5021811;28;20503;-62
2024/03/12 05:10:06;;;;;;;2.40;2.10;;;15.30;49.40;;;;;;5022996;28;20582;-61
2024/03/12 05:12:31;;;;;;;2.27;2.07;;;15.30;49.50;;;;;;5020339;28;20826;-56
2024/03/12 05:14:57;;;;;;;2.90;2.27;;;15.40;49.60;;;;;;5020101;28;20444;-60
2024/03/12 05:17:22;;;;;;;3.60;2.30;;;15.50;49.70;;;;;;5021233;28;20204;-61
2024/03/12 05:19:48;;;;;;;3.53;3.13;;;15.60;49.90;;;;;;5026807;28;20194;-65
2024/03/12 05:22:14;;;;;;;3.13;2.83;;;15.70;49.80;;;;;;5034793;28;20176;-65
2024/03/12 05:24:40;;;;;;;3.87;2.80;;;15.70;49.50;;;;;;5033967;28;20428;-59
2024/03/12 05:27:06;;;;;;;2.50;2.30;;;15.80;49.50;;;;;;5030729;28;20236;-58
2024/03/12 05:29:42;;;;;;;2.70;2.50;;;15.80;49.70;;;;;;5031005;28;21032;-58
2024/03/12 05:32:28;;;;;;;2.90;2.60;;;15.80;50.00;;;;;;5034564;28;20188;-58
2024/03/12 05:34:58;;;;;;;2.93;2.13;;;15.90;50.00;;;;;;5029717;28;20428;-60
2024/03/12 05:38:01;;;;;;;2.60;2.40;;;16.00;50.10;;;;;;5033640;28;20470;-59
2024/03/12 05:40:17;;;;;;;2.43;2.23;;;16.10;50.10;;;;;;5025884;28;20968;-65
2024/03/12 05:48:13;;;;;;;3.60;2.80;;;16.10;49.80;;;;;;5030393;28;20438;-66
2024/03/12 05:50:40;;;;;;;2.70;2.50;;;16.10;50.10;;;;;;5029356;28;20424;-62
2024/03/12 05:53:09;;;;;;;2.87;2.67;;;16.10;50.40;;;;;;5030368;28;20225;-59
2024/03/12 05:55:35;;;;;;;3.00;2.70;;;16.00;50.50;;;;;;5027775;28;20894;-64
2024/03/12 05:58:01;;;;;;;2.70;2.50;;;15.90;50.70;;;;;;5021187;28;20479;-65
2024/03/12 06:00:27;;;;;;;3.03;2.73;;;15.70;51.20;;;;;;5022250;28;20181;-62
2024/03/12 06:02:53;;;;;;;2.83;2.63;;;15.60;51.70;;;;;;5020952;28;22364;-64
2024/03/12 06:05:20;;;;;;;3.50;2.70;;;15.50;52.00;;;;;;5020017;28;20734;-63
2024/03/12 06:07:48;;;;;;;3.50;2.30;;;15.40;51.80;;;;;;5021034;28;20464;-66
2024/03/12 06:10:14;;;;;;;4.00;3.17;;;15.20;52.00;;;;;;5026620;28;20474;-60
2024/03/12 06:12:39;;;;;;;4.23;2.87;;;15.10;52.40;;;;;;5030588;28;20848;-63
2024/03/12 06:15:05;;;;;;;3.53;2.80;;;15.00;52.40;;;;;;5033720;28;20750;-64
2024/03/12 06:17:32;;;;;;;3.53;3.00;;;15.00;52.70;;;;;;5031343;28;20209;-65
2024/03/12 06:19:58;;;;;;;4.83;4.00;;;15.00;53.10;;;;;;5025186;28;20433;-63
2024/03/12 06:22:24;;;;;;;5.43;4.37;;;15.00;53.30;;;;;;5025708;28;20860;-61
2024/03/12 06:24:49;;;;;;;4.90;3.80;;;15.00;53.50;;;;;;5025293;28;20498;-63
2024/03/12 06:27:16;;;;;;;3.60;3.30;;;15.00;53.70;;;;;;5029902;28;20224;-65
2024/03/12 06:29:42;;;;;;;3.97;3.07;;;15.00;53.60;;;;;;5030912;28;20191;-64
2024/03/12 06:32:08;;;;;;;3.70;3.03;;;15.00;53.30;;;;;;5031004;28;20522;-63
2024/03/12 06:34:33;;;;;;;3.40;3.10;;;15.00;53.20;;;;;;5028512;28;20220;-65
2024/03/12 06:36:59;;;;;;;4.73;2.93;;;15.00;53.10;;;;;;5034629;28;21004;-59
2024/03/12 06:39:32;;;;;;;3.63;2.93;;;15.00;53.00;;;;;;5032382;28;20228;-59
2024/03/12 06:42:02;;;;;;;3.30;3.00;;;15.00;53.10;;;;;;5033555;28;20193;-62
2024/03/12 06:44:30;;;;;;;4.43;3.30;;;15.10;53.10;;;;;;5027322;28;20439;-63
2024/03/12 06:46:56;;;;;;;3.20;2.90;;;15.00;53.00;;;;;;5032210;28;20448;-62
2024/03/12 06:49:22;;;;;;;3.07;2.87;;;15.00;53.30;;;;;;5032076;28;20459;-62
2024/03/12 06:51:48;;;;;;;3.37;3.03;;;15.00;53.50;;;;;;5032767;28;20189;-66
2024/03/12 06:54:14;;;;;;;5.73;3.50;;;14.90;53.50;;;;;;5029551;28;20861;-63
2024/03/12 06:56:43;;;;;;;4.20;3.80;;;14.80;53.90;;;;;;5023646;28;20220;-63
2024/03/12 06:59:15;;;;;;;3.77;3.40;;;14.80;53.80;;;;;;5029233;28;20532;-61
2024/03/12 07:01:41;;;;;;;5.73;3.10;;;14.90;53.90;;;;;;5031394;28;20431;-62
2024/03/12 07:04:10;;;;;;;4.80;3.40;;;14.90;53.90;;;;;;5028388;28;20530;-59
2024/03/12 07:06:42;;;;;;;4.37;3.13;;;15.00;53.80;;;;;;5025753;28;20455;-62
2024/03/12 07:09:09;;;;;;;3.80;3.50;;;15.00;53.90;;;;;;5023332;28;20436;-64
2024/03/12 07:11:39;;;;;;;4.20;3.80;;;15.00;53.90;;;;;;5030213;28;20427;-61
2024/03/12 07:14:23;;;;;;;4.07;3.10;;;15.00;54.00;;;;;;5034817;28;20514;-67
2024/03/12 07:16:52;;;;;;;3.73;3.30;;;14.90;54.10;;;;;;5032169;28;21028;-60
2024/03/12 07:19:18;;;;;;;4.13;3.83;;;14.90;54.00;;;;;;5031379;28;20472;-63
2024/03/12 07:21:43;;;;;;;3.83;3.40;;;14.90;54.10;;;;;;5032944;28;20947;-59
2024/03/12 07:24:12;;;;;;;3.30;3.00;;;14.80;54.60;;;;;;5029718;28;20197;-59
2024/03/12 07:26:37;;;;;;;5.87;2.93;;;14.90;54.80;;;;;;5031767;28;20232;-60
2024/03/12 07:29:06;;;;;;;3.10;2.90;;;14.90;54.90;;;;;;5027576;28;20432;-65
2024/03/12 07:31:33;;;;;;;3.40;2.87;;;15.00;54.90;;;;;;5028317;28;20436;-65
2024/03/12 07:34:00;;;;;;;3.37;3.07;;;15.00;54.60;;;;;;5031110;28;20454;-63
2024/03/12 07:36:26;;;;;;;4.10;2.83;;;15.00;54.20;;;;;;5035313;28;20604;-65
2024/03/12 07:38:52;;;;;;;4.90;3.43;;;15.10;54.20;;;;;;5030279;28;20473;-65
2024/03/12 07:41:18;;;;;;;3.73;3.40;;;15.10;54.00;;;;;;5032277;28;20443;-64
2024/03/12 07:43:44;;;;;;;2.70;2.50;;;15.10;54.00;;;;;;5035512;28;20455;-59
2024/03/12 07:46:11;;;;;;;3.77;3.27;;;15.20;54.10;;;;;;5033933;28;20211;-65
2024/03/12 07:48:37;;;;;;;4.67;3.07;;;15.20;54.10;;;;;;5032115;28;20459;-63
2024/03/12 07:51:05;;;;;;;4.07;2.90;;;15.30;54.10;;;;;;5037048;28;20432;-65
2024/03/12 07:53:30;;;;;;;3.67;3.03;;;15.30;53.60;;;;;;5032785;28;20481;-57
2024/03/12 07:56:00;;;;;;;5.60;3.50;;;15.30;53.40;;;;;;5032801;28;20828;-64
2024/03/12 07:58:28;;;;;;;6.07;4.50;;;15.40;53.60;;;;;;5027609;28;20774;-59
2024/03/12 08:00:54;;;;;;;4.83;4.30;;;15.50;53.60;;;;;;5037190;28;20435;-58
2024/03/12 08:03:20;;;;;;;6.10;4.60;;;15.50;53.40;;;;;;5033585;28;20454;-64
2024/03/12 08:05:46;;;;;;;9.30;5.20;;;15.50;53.10;;;;;;5034600;28;20448;-66
2024/03/12 08:08:12;;;;;;;8.80;4.83;;;15.50;52.40;;;;;;5036281;28;21029;-59
2024/03/12 08:10:40;;;;;;;8.93;5.37;;;15.50;52.50;;;;;;5029543;28;20189;-61
2024/03/12 08:13:06;;;;;;;6.50;4.50;;;15.50;52.70;;;;;;5032671;28;20831;-65
2024/03/12 08:15:32;;;;;;;7.90;4.23;;;15.50;52.80;;;;;;5029869;28;20448;-60
2024/03/12 08:17:57;;;;;;;3.80;3.43;;;15.50;52.80;;;;;;5036493;28;20229;-62
2024/03/12 08:20:23;;;;;;;19.03;4.67;;;15.60;52.80;;;;;;5033360;28;20217;-63
2024/03/12 08:22:49;;;;;;;5.83;3.83;;;15.70;52.80;;;;;;5035840;28;20264;-62
2024/03/12 08:25:16;;;;;;;6.03;3.90;;;15.80;52.80;;;;;;5034531;28;20247;-66
2024/03/12 08:27:42;;;;;;;7.23;4.47;;;15.90;52.70;;;;;;5033931;28;20228;-64
2024/03/12 08:30:09;;;;;;;3.90;3.50;;;16.10;52.70;;;;;;5035209;28;20783;-61
2024/03/12 08:32:36;;;;;;;4.77;4.07;;;16.10;52.50;;;;;;5034069;28;20482;-58
2024/03/12 08:35:02;;;;;;;5.33;3.57;;;16.20;52.30;;;;;;5035254;28;20821;-58
2024/03/12 08:37:28;;;;;;;6.60;3.80;;;16.30;52.50;;;;;;5029872;28;20460;-64
2024/03/12 08:39:54;;;;;;;7.73;4.30;;;16.30;53.10;;;;;;5030162;28;20527;-63
2024/03/12 08:42:21;;;;;;;9.70;3.40;;;16.40;52.70;;;;;;5032874;28;20192;-66
2024/03/12 08:44:46;;;;;;;9.80;2.97;;;16.40;51.90;;;;;;5022246;28;20443;-59
2024/03/12 08:47:12;;;;;;;4.20;3.90;;;16.40;52.10;;;;;;5028767;28;21064;-62
2024/03/12 08:49:38;;;;;;;4.60;3.57;;;16.50;52.20;;;;;;5032200;28;20294;-58
2024/03/12 08:52:04;;;;;;;6.37;3.47;;;16.50;51.90;;;;;;5035028;28;20189;-62
2024/03/12 08:54:33;;;;;;;7.17;3.37;;;16.60;52.10;;;;;;5029019;28;20177;-62
2024/03/12 08:57:00;;;;;;;4.87;3.40;;;16.70;51.80;;;;;;5020954;28;20488;-58
2024/03/12 08:59:26;;;;;;;8.23;4.80;;;16.70;51.40;;;;;;5027451;28;20479;-65
2024/03/12 09:01:57;;;;;;;8.27;5.23;;;16.70;51.30;;;;;;5023887;28;20534;-64
2024/03/12 09:04:23;;;;;;;5.37;4.87;;;16.60;51.40;;;;;;5031295;28;20270;-62
2024/03/12 09:06:48;;;;;;;4.00;3.47;;;16.60;51.70;;;;;;5023441;28;20496;-63
2024/03/12 09:09:15;;;;;;;3.30;2.60;;;16.40;51.90;;;;;;5028771;28;20464;-63
2024/03/12 09:11:41;;;;;;;3.93;1.63;;;16.30;51.70;;;;;;5026619;28;20197;-66
2024/03/12 09:14:07;;;;;;;2.17;1.97;;;16.00;51.50;;;;;;5023300;28;20466;-64
2024/03/12 09:16:34;;;;;;;2.33;1.30;;;15.60;51.60;;;;;;5031046;28;20575;-66
2024/03/12 09:19:00;;;;;;;2.83;1.70;;;15.40;52.10;;;;;;5024539;28;20236;-64
2024/03/12 09:21:27;;;;;;;1.77;1.47;;;15.50;52.40;;;;;;5030819;28;20440;-61
2024/03/12 09:23:53;;;;;;;2.17;1.77;;;15.40;52.60;;;;;;5028855;28;20448;-57
2024/03/12 09:26:19;;;;;;;1.90;1.43;;;15.30;52.70;;;;;;5030703;28;21024;-60
2024/03/12 09:28:44;;;;;;;1.57;1.40;;;15.00;52.90;;;;;;5026071;28;20784;-60
2024/03/12 09:31:10;;;;;;;2.13;1.50;;;15.00;53.00;;;;;;5031239;28;20609;-62
2024/03/12 09:33:36;;;;;;;2.67;1.70;;;14.90;52.90;;;;;;5027840;28;20180;-65
2024/03/12 09:36:03;;;;;;;3.20;1.30;;;14.90;53.30;;;;;;5030131;28;20268;-63
2024/03/12 09:38:29;;;;;;;2.03;1.83;;;15.00;53.20;;;;;;5022939;28;20485;-63
2024/03/12 09:40:59;;;;;;;2.10;1.47;;;15.00;53.10;;;;;;5032772;28;20439;-61
2024/03/12 09:43:28;;;;;;;4.63;1.40;;;15.00;53.20;;;;;;5031727;28;20518;-62
2024/03/12 09:45:54;;;;;;;2.70;1.73;;;15.00;53.50;;;;;;5029918;28;20511;-59
2024/03/12 09:48:21;;;;;;;2.47;1.83;;;14.90;53.50;;;;;;5019085;28;20510;-64
2024/03/12 09:50:49;;;;;;;1.77;1.57;;;14.60;53.70;;;;;;5032821;28;20569;-60
2024/03/12 09:53:15;;;;;;;2.70;2.03;;;14.70;53.80;;;;;;5025898;28;20470;-62
2024/03/12 09:55:42;;;;;;;7.90;2.40;;;14.50;53.60;;;;;;5030012;28;20427;-63
2024/03/12 09:58:08;;;;;;;4.17;2.60;;;14.50;54.10;;;;;;5021812;28;20887;-62
2024/03/12 10:00:36;;;;;;;2.60;2.40;;;14.50;54.20;;;;;;5031124;28;20436;-67
2024/03/12 10:03:03;;;;;;;6.33;2.83;;;14.40;54.60;;;;;;5029673;28;20817;-65
2024/03/12 10:05:29;;;;;;;4.23;2.80;;;14.40;54.60;;;;;;5027126;28;20447;-62
2024/03/12 10:08:14;;;;;;;6.50;3.10;;;14.20;54.70;;;;;;5027270;28;20467;-62
2024/03/12 10:10:45;;;;;;;4.90;3.30;;;14.00;55.70;;;;;;5029117;28;20747;-61
2024/03/12 10:13:14;;;;;;;3.37;3.07;;;14.00;55.70;;;;;;5031459;28;20457;-60
2024/03/12 10:15:59;;;;;;;3.53;2.77;;;14.00;55.80;;;;;;5021991;28;20824;-57
2024/03/12 10:18:30;;;;;;;5.73;3.03;;;13.60;56.10;;;;;;5024549;28;20885;-60
2024/03/12 10:20:57;;;;;;;5.20;2.90;;;13.40;56.60;;;;;;5030819;28;20963;-63
2024/03/12 10:23:28;;;;;;;5.37;2.77;;;13.30;56.90;;;;;;5027831;28;20535;-60
2024/03/12 10:26:12;;;;;;;5.13;2.40;;;13.30;57.20;;;;;;5024367;28;20602;-59
2024/03/12 10:28:39;;;;;;;4.33;3.00;;;13.60;57.40;;;;;;5023892;28;20451;-58
2024/03/12 10:31:12;;;;;;;3.70;2.90;;;13.90;56.70;;;;;;5031190;28;20443;-66
2024/03/12 10:33:44;;;;;;;5.93;2.70;;;13.90;56.50;;;;;;5024887;28;20448;-62
2024/03/12 10:36:10;;;;;;;3.03;2.47;;;13.80;56.30;;;;;;5032818;28;20458;-58
2024/03/12 10:38:39;;;;;;;3.57;2.57;;;13.80;56.60;;;;;;5026351;28;20478;-64
2024/03/12 10:41:19;;;;;;;2.50;2.30;;;13.80;56.50;;;;;;5029958;28;20455;-62
2024/03/12 10:43:46;;;;;;;4.00;2.83;;;13.90;56.50;;;;;;5023733;28;20947;-63
2024/03/12 10:46:16;;;;;;;3.40;2.53;;;14.10;56.20;;;;;;5028058;28;21104;-58
2024/03/12 10:48:43;;;;;;;4.50;2.80;;;14.10;56.30;;;;;;5030064;28;20511;-59
2024/03/12 10:51:12;;;;;;;5.30;2.30;;;14.00;56.00;;;;;;5031587;28;20446;-64
2024/03/12 10:53:42;;;;;;;3.93;2.77;;;14.20;56.10;;;;;;5020209;28;20443;-58
2024/03/12 10:56:09;;;;;;;4.10;2.80;;;14.30;55.90;;;;;;5032665;28;20466;-65
2024/03/12 10:58:36;;;;;;;3.83;2.50;;;14.50;55.30;;;;;;5028406;28;20902;-59
2024/03/12 11:01:02;;;;;;;3.40;2.30;;;14.40;54.90;;;;;;5021320;28;20502;-60
2024/03/12 11:03:28;;;;;;;4.50;2.80;;;14.40;55.30;;;;;;5025074;28;20436;-58
2024/03/12 11:05:54;;;;;;;3.00;2.07;;;14.50;55.10;;;;;;5025805;28;20185;-58
2024/03/12 11:08:20;;;;;;;3.50;2.00;;;14.50;54.80;;;;;;5031769;28;20184;-59
2024/03/12 11:10:48;;;;;;;3.03;2.27;;;14.50;55.00;;;;;;5031367;28;20462;-59
2024/03/12 11:13:16;;;;;;;2.37;1.97;;;14.30;55.30;;;;;;5028843;28;20840;-64
2024/03/12 11:15:42;;;;;;;3.03;2.00;;;14.40;55.10;;;;;;5027208;28;20549;-61
2024/03/12 11:18:09;;;;;;;3.07;2.10;;;14.70;54.70;;;;;;5034697;28;20997;-60
2024/03/12 11:20:39;;;;;;;3.50;2.60;;;14.80;54.50;;;;;;5032174;28;20625;-62
2024/03/12 11:23:05;;;;;;;4.27;2.60;;;14.80;54.30;;;;;;5033576;28;20440;-61
2024/03/12 11:25:39;;;;;;;2.57;2.07;;;14.80;54.40;;;;;;5033129;28;20491;-63
2024/03/12 11:28:26;;;;;;;3.90;2.10;;;14.70;54.30;;;;;;5033916;28;20955;-69
2024/03/12 11:30:55;;;;;;;2.70;2.27;;;14.30;55.00;;;;;;5027356;28;20438;-67
2024/03/12 11:33:40;;;;;;;3.57;2.13;;;14.20;55.40;;;;;;5035890;28;20496;-57
2024/03/12 11:36:09;;;;;;;2.13;1.83;;;14.30;55.80;;;;;;5033729;28;20953;-64
2024/03/12 11:38:35;;;;;;;5.80;1.93;;;14.40;55.50;;;;;;5021651;28;21145;-63
2024/03/12 11:41:02;;;;;;;2.43;1.80;;;14.50;55.60;;;;;;5024760;28;20546;-61
2024/03/12 11:43:39;;;;;;;3.70;1.63;;;14.30;55.50;;;;;;5026461;28;20562;-57
2024/03/12 11:46:07;;;;;;;1.53;1.43;;;14.10;55.80;;;;;;5036587;28;21801;-58
2024/03/12 11:48:35;;;;;;;1.97;1.40;;;14.30;56.30;;;;;;5034977;28;20482;-58
2024/03/12 11:51:03;;;;;;;4.13;1.50;;;14.30;55.50;;;;;;5031290;28;20443;-61
2024/03/12 11:53:35;;;;;;;2.50;2.20;;;14.40;55.70;;;;;;5032458;28;20481;-57
2024/03/12 11:56:06;;;;;;;3.30;2.83;;;14.20;55.90;;;;;;5035842;28;20446;-57
2024/03/12 11:58:40;;;;;;;2.70;2.50;;;14.30;56.00;;;;;;5029480;28;20488;-64
2024/03/12 12:01:10;;;;;;;3.10;2.37;;;14.30;55.80;;;;;;5032967;28;20450;-60
2024/03/12 12:03:37;;;;;;;3.23;2.50;;;14.30;55.70;;;;;;5031124;28;20468;-62
2024/03/12 12:06:03;;;;;;;2.87;2.57;;;14.30;56.00;;;;;;5033825;28;20911;-62
2024/03/12 12:08:30;;;;;;;2.80;2.50;;;14.20;56.10;;;;;;5025943;28;22349;-57
2024/03/12 12:11:09;;;;;;;2.40;2.13;;;14.20;56.40;;;;;;5036129;28;20951;-65
2024/03/12 12:13:36;;;;;;;4.67;2.87;;;14.20;56.50;;;;;;5032705;28;20444;-58
2024/03/12 12:16:04;;;;;;;3.30;2.20;;;14.20;56.90;;;;;;5036044;28;20424;-66
2024/03/12 12:18:34;;;;;;;3.70;2.40;;;14.10;57.30;;;;;;5023801;28;20479;-66
2024/03/12 12:21:08;;;;;;;2.87;2.27;;;14.10;57.20;;;;;;5030100;28;20440;-63
2024/03/12 12:23:36;;;;;;;3.67;2.40;;;13.90;57.30;;;;;;5033626;28;20435;-60
2024/03/12 12:26:05;;;;;;;2.30;2.10;;;13.50;58.20;;;;;;5027903;28;20479;-60
2024/03/12 12:28:31;;;;;;;2.87;2.53;;;13.60;58.00;;;;;;5030714;28;20527;-58
2024/03/12 12:31:00;;;;;;;3.00;2.50;;;13.50;57.70;;;;;;5031739;28;20811;-59
2024/03/12 12:33:28;;;;;;;5.90;3.57;;;13.50;57.80;;;;;;5030822;28;20436;-64
2024/03/12 12:35:55;;;;;;;4.80;3.63;;;13.50;57.60;;;;;;5032153;28;20455;-57
2024/03/12 12:38:23;;;;;;;4.20;3.80;;;13.70;57.30;;;;;;5033065;28;20475;-56
2024/03/12 12:40:49;;;;;;;6.27;5.57;;;13.80;57.00;;;;;;5030050;28;20538;-59
2024/03/12 12:43:17;;;;;;;5.40;4.50;;;14.00;56.80;;;;;;5029852;28;20444;-61
2024/03/12 12:45:44;;;;;;;8.80;6.43;;;13.90;56.30;;;;;;5029077;28;20444;-60
2024/03/12 12:48:11;;;;;;;7.03;6.13;;;14.00;56.30;;;;;;5024578;28;20490;-58
2024/03/12 12:50:36;;;;;;;10.20;6.70;;;13.90;56.10;;;;;;5032451;28;20470;-63
2024/03/12 12:53:04;;;;;;;12.47;8.53;;;14.00;56.10;;;;;;5026006;28;20440;-66